sensor_id;sensor_type;location;lat;lon;timestamp;P1;durP1;ratioP1;P2;durP2;ratioP2
37543;SDS011;23385;52.038;20.322;2022-08-01T00:00:33;8.17;;;3.83;;
37543;SDS011;23385;52.038;20.322;2022-08-01T00:02:59;10.10;;;4.07;;
37543;SDS011;23385;52.038;20.322;2022-08-01T00:05:25;15.50;;;4.33;;
37543;SDS011;23385;52.038;20.322;2022-08-01T00:07:52;8.63;;;3.97;;
37543;SDS011;23385;52.038;20.322;2022-08-01T00:10:18;7.53;;;4.10;;
37543;SDS011;23385;52.038;20.322;2022-08-01T00:12:44;8.83;;;3.40;;
37543;SDS011;23385;52.038;20.322;2022-08-01T00:15:11;4.27;;;3.20;;
37543;SDS011;23385;52.038;20.322;2022-08-01T00:17:40;8.43;;;3.90;;
37543;SDS011;23385;52.038;20.322;2022-08-01T00:20:07;4.80;;;4.33;;
37543;SDS011;23385;52.038;20.322;2022-08-01T00:22:35;5.67;;;3.67;;
37543;SDS011;23385;52.038;20.322;2022-08-01T00:25:01;10.63;;;4.17;;
37543;SDS011;23385;52.038;20.322;2022-08-01T00:27:28;5.20;;;4.37;;
37543;SDS011;23385;52.038;20.322;2022-08-01T00:29:55;8.23;;;5.07;;
37543;SDS011;23385;52.038;20.322;2022-08-01T00:32:20;7.27;;;4.70;;
37543;SDS011;23385;52.038;20.322;2022-08-01T00:34:46;9.23;;;5.53;;
37543;SDS011;23385;52.038;20.322;2022-08-01T00:37:12;4.87;;;4.40;;
37543;SDS011;23385;52.038;20.322;2022-08-01T00:39:38;14.07;;;5.63;;
37543;SDS011;23385;52.038;20.322;2022-08-01T00:42:07;6.77;;;5.33;;
37543;SDS011;23385;52.038;20.322;2022-08-01T00:44:34;9.67;;;4.77;;
37543;SDS011;23385;52.038;20.322;2022-08-01T00:47:00;5.77;;;5.17;;
37543;SDS011;23385;52.038;20.322;2022-08-01T00:49:26;10.90;;;6.53;;
37543;SDS011;23385;52.038;20.322;2022-08-01T00:51:52;6.37;;;5.40;;
37543;SDS011;23385;52.038;20.322;2022-08-01T00:54:19;9.70;;;5.13;;
37543;SDS011;23385;52.038;20.322;2022-08-01T00:56:44;7.33;;;5.30;;
37543;SDS011;23385;52.038;20.322;2022-08-01T00:59:11;8.53;;;6.10;;
37543;SDS011;23385;52.038;20.322;2022-08-01T01:01:39;7.30;;;6.50;;
37543;SDS011;23385;52.038;20.322;2022-08-01T01:04:05;5.20;;;4.70;;
37543;SDS011;23385;52.038;20.322;2022-08-01T01:14:45;8.00;;;6.50;;
37543;SDS011;23385;52.038;20.322;2022-08-01T01:17:17;8.87;;;6.33;;
37543;SDS011;23385;52.038;20.322;2022-08-01T01:19:50;6.13;;;5.53;;
37543;SDS011;23385;52.038;20.322;2022-08-01T01:28:05;10.47;;;6.70;;
37543;SDS011;23385;52.038;20.322;2022-08-01T01:30:34;7.77;;;5.77;;
37543;SDS011;23385;52.038;20.322;2022-08-01T01:33:03;11.17;;;6.33;;
37543;SDS011;23385;52.038;20.322;2022-08-01T01:35:35;8.13;;;6.00;;
37543;SDS011;23385;52.038;20.322;2022-08-01T01:38:22;8.43;;;7.60;;
37543;SDS011;23385;52.038;20.322;2022-08-01T01:40:51;9.70;;;6.67;;
37543;SDS011;23385;52.038;20.322;2022-08-01T01:43:18;11.50;;;7.50;;
37543;SDS011;23385;52.038;20.322;2022-08-01T01:45:48;8.83;;;6.93;;
37543;SDS011;23385;52.038;20.322;2022-08-01T01:48:17;11.70;;;8.03;;
37543;SDS011;23385;52.038;20.322;2022-08-01T01:50:47;8.47;;;7.60;;
37543;SDS011;23385;52.038;20.322;2022-08-01T01:53:15;15.13;;;7.90;;
37543;SDS011;23385;52.038;20.322;2022-08-01T01:55:45;12.43;;;8.03;;
37543;SDS011;23385;52.038;20.322;2022-08-01T01:58:13;17.73;;;8.33;;
37543;SDS011;23385;52.038;20.322;2022-08-01T02:00:42;8.37;;;7.40;;
37543;SDS011;23385;52.038;20.322;2022-08-01T02:03:10;8.33;;;6.83;;
37543;SDS011;23385;52.038;20.322;2022-08-01T02:05:37;10.00;;;7.50;;
37543;SDS011;23385;52.038;20.322;2022-08-01T02:08:05;9.33;;;7.40;;
37543;SDS011;23385;52.038;20.322;2022-08-01T02:10:32;9.47;;;6.97;;
37543;SDS011;23385;52.038;20.322;2022-08-01T02:18:10;11.33;;;7.37;;
37543;SDS011;23385;52.038;20.322;2022-08-01T02:20:37;9.20;;;7.13;;
37543;SDS011;23385;52.038;20.322;2022-08-01T02:23:07;13.30;;;6.43;;
37543;SDS011;23385;52.038;20.322;2022-08-01T02:25:38;13.80;;;7.23;;
37543;SDS011;23385;52.038;20.322;2022-08-01T02:28:10;7.80;;;6.40;;
37543;SDS011;23385;52.038;20.322;2022-08-01T02:30:41;8.00;;;7.03;;
37543;SDS011;23385;52.038;20.322;2022-08-01T02:33:12;8.03;;;6.27;;
37543;SDS011;23385;52.038;20.322;2022-08-01T02:35:43;13.90;;;6.90;;
37543;SDS011;23385;52.038;20.322;2022-08-01T02:38:12;10.80;;;6.53;;
37543;SDS011;23385;52.038;20.322;2022-08-01T02:40:43;8.70;;;7.00;;
37543;SDS011;23385;52.038;20.322;2022-08-01T02:43:12;11.30;;;7.13;;
37543;SDS011;23385;52.038;20.322;2022-08-01T02:45:42;15.17;;;6.73;;
37543;SDS011;23385;52.038;20.322;2022-08-01T02:48:13;10.10;;;6.70;;
37543;SDS011;23385;52.038;20.322;2022-08-01T02:50:42;9.40;;;6.30;;
37543;SDS011;23385;52.038;20.322;2022-08-01T02:53:12;12.87;;;6.47;;
37543;SDS011;23385;52.038;20.322;2022-08-01T02:55:39;10.93;;;6.40;;
37543;SDS011;23385;52.038;20.322;2022-08-01T02:58:08;7.37;;;6.40;;
37543;SDS011;23385;52.038;20.322;2022-08-01T03:00:37;8.27;;;5.80;;
37543;SDS011;23385;52.038;20.322;2022-08-01T03:03:05;14.47;;;7.17;;
37543;SDS011;23385;52.038;20.322;2022-08-01T03:05:33;9.27;;;6.87;;
37543;SDS011;23385;52.038;20.322;2022-08-01T03:08:01;9.07;;;6.97;;
37543;SDS011;23385;52.038;20.322;2022-08-01T03:10:28;7.80;;;6.67;;
37543;SDS011;23385;52.038;20.322;2022-08-01T03:12:55;13.83;;;7.03;;
37543;SDS011;23385;52.038;20.322;2022-08-01T03:15:24;9.83;;;6.77;;
37543;SDS011;23385;52.038;20.322;2022-08-01T03:17:52;9.93;;;7.50;;
37543;SDS011;23385;52.038;20.322;2022-08-01T03:20:20;10.10;;;7.60;;
37543;SDS011;23385;52.038;20.322;2022-08-01T03:22:50;13.90;;;7.20;;
37543;SDS011;23385;52.038;20.322;2022-08-01T03:25:17;9.63;;;6.83;;
37543;SDS011;23385;52.038;20.322;2022-08-01T03:27:45;10.43;;;7.57;;
37543;SDS011;23385;52.038;20.322;2022-08-01T03:30:16;12.93;;;7.43;;
37543;SDS011;23385;52.038;20.322;2022-08-01T03:32:42;10.83;;;7.20;;
37543;SDS011;23385;52.038;20.322;2022-08-01T03:35:11;10.47;;;6.03;;
37543;SDS011;23385;52.038;20.322;2022-08-01T03:37:46;7.30;;;6.57;;
37543;SDS011;23385;52.038;20.322;2022-08-01T03:40:25;12.20;;;7.17;;
37543;SDS011;23385;52.038;20.322;2022-08-01T03:42:58;13.23;;;7.33;;
37543;SDS011;23385;52.038;20.322;2022-08-01T03:45:31;8.23;;;7.23;;
37543;SDS011;23385;52.038;20.322;2022-08-01T03:48:01;11.43;;;7.87;;
37543;SDS011;23385;52.038;20.322;2022-08-01T03:50:30;10.70;;;7.40;;
37543;SDS011;23385;52.038;20.322;2022-08-01T03:53:00;10.97;;;7.13;;
37543;SDS011;23385;52.038;20.322;2022-08-01T03:55:29;8.23;;;6.93;;
37543;SDS011;23385;52.038;20.322;2022-08-01T03:57:56;7.77;;;6.93;;
37543;SDS011;23385;52.038;20.322;2022-08-01T04:00:23;10.00;;;7.37;;
37543;SDS011;23385;52.038;20.322;2022-08-01T04:02:51;8.87;;;6.97;;
37543;SDS011;23385;52.038;20.322;2022-08-01T04:05:18;8.83;;;7.00;;
37543;SDS011;23385;52.038;20.322;2022-08-01T04:07:47;15.20;;;7.33;;
37543;SDS011;23385;52.038;20.322;2022-08-01T04:10:25;8.13;;;7.27;;
37543;SDS011;23385;52.038;20.322;2022-08-01T04:12:51;16.80;;;6.97;;
37543;SDS011;23385;52.038;20.322;2022-08-01T04:15:17;8.10;;;7.20;;
37543;SDS011;23385;52.038;20.322;2022-08-01T04:17:45;9.33;;;6.90;;
37543;SDS011;23385;52.038;20.322;2022-08-01T04:20:12;8.77;;;7.43;;
37543;SDS011;23385;52.038;20.322;2022-08-01T04:22:40;15.90;;;9.13;;
37543;SDS011;23385;52.038;20.322;2022-08-01T04:25:08;9.50;;;8.17;;
37543;SDS011;23385;52.038;20.322;2022-08-01T04:27:38;13.77;;;9.03;;
37543;SDS011;23385;52.038;20.322;2022-08-01T04:30:08;10.83;;;8.93;;
37543;SDS011;23385;52.038;20.322;2022-08-01T04:32:35;9.30;;;8.37;;
37543;SDS011;23385;52.038;20.322;2022-08-01T04:35:04;11.00;;;9.47;;
37543;SDS011;23385;52.038;20.322;2022-08-01T04:37:34;15.03;;;10.00;;
37543;SDS011;23385;52.038;20.322;2022-08-01T04:40:05;14.03;;;9.23;;
37543;SDS011;23385;52.038;20.322;2022-08-01T04:42:32;16.10;;;10.47;;
37543;SDS011;23385;52.038;20.322;2022-08-01T04:44:58;13.00;;;11.30;;
37543;SDS011;23385;52.038;20.322;2022-08-01T04:47:27;12.50;;;11.07;;
37543;SDS011;23385;52.038;20.322;2022-08-01T04:49:56;17.90;;;11.37;;
37543;SDS011;23385;52.038;20.322;2022-08-01T04:52:22;12.30;;;10.20;;
37543;SDS011;23385;52.038;20.322;2022-08-01T04:54:48;13.53;;;10.70;;
37543;SDS011;23385;52.038;20.322;2022-08-01T04:57:14;19.07;;;11.00;;
37543;SDS011;23385;52.038;20.322;2022-08-01T04:59:41;15.37;;;10.90;;
37543;SDS011;23385;52.038;20.322;2022-08-01T05:02:09;13.47;;;11.10;;
37543;SDS011;23385;52.038;20.322;2022-08-01T05:04:37;20.87;;;15.17;;
37543;SDS011;23385;52.038;20.322;2022-08-01T05:07:05;13.60;;;10.93;;
37543;SDS011;23385;52.038;20.322;2022-08-01T05:09:32;16.20;;;10.60;;
37543;SDS011;23385;52.038;20.322;2022-08-01T05:11:58;21.97;;;12.57;;
37543;SDS011;23385;52.038;20.322;2022-08-01T05:14:26;15.33;;;11.33;;
37543;SDS011;23385;52.038;20.322;2022-08-01T05:16:52;22.93;;;12.80;;
37543;SDS011;23385;52.038;20.322;2022-08-01T05:19:19;87.20;;;55.03;;
37543;SDS011;23385;52.038;20.322;2022-08-01T05:21:45;24.97;;;16.50;;
37543;SDS011;23385;52.038;20.322;2022-08-01T05:24:12;19.30;;;13.63;;
37543;SDS011;23385;52.038;20.322;2022-08-01T05:26:38;43.20;;;32.87;;
37543;SDS011;23385;52.038;20.322;2022-08-01T05:29:05;17.03;;;13.70;;
37543;SDS011;23385;52.038;20.322;2022-08-01T05:31:31;37.23;;;25.90;;
37543;SDS011;23385;52.038;20.322;2022-08-01T05:33:59;49.30;;;31.00;;
37543;SDS011;23385;52.038;20.322;2022-08-01T05:36:29;15.73;;;10.90;;
37543;SDS011;23385;52.038;20.322;2022-08-01T05:38:55;11.93;;;8.97;;
37543;SDS011;23385;52.038;20.322;2022-08-01T05:41:21;10.67;;;8.90;;
37543;SDS011;23385;52.038;20.322;2022-08-01T05:43:47;35.37;;;18.00;;
37543;SDS011;23385;52.038;20.322;2022-08-01T05:46:13;16.37;;;11.83;;
37543;SDS011;23385;52.038;20.322;2022-08-01T05:48:40;19.67;;;11.90;;
37543;SDS011;23385;52.038;20.322;2022-08-01T05:51:05;11.77;;;8.57;;
37543;SDS011;23385;52.038;20.322;2022-08-01T05:53:33;9.27;;;8.33;;
37543;SDS011;23385;52.038;20.322;2022-08-01T05:55:59;12.77;;;10.43;;
37543;SDS011;23385;52.038;20.322;2022-08-01T05:58:27;15.90;;;10.87;;
37543;SDS011;23385;52.038;20.322;2022-08-01T06:00:52;17.10;;;11.10;;
37543;SDS011;23385;52.038;20.322;2022-08-01T06:03:18;10.60;;;8.70;;
37543;SDS011;23385;52.038;20.322;2022-08-01T06:05:44;16.83;;;14.30;;
37543;SDS011;23385;52.038;20.322;2022-08-01T06:08:10;27.10;;;15.73;;
37543;SDS011;23385;52.038;20.322;2022-08-01T06:10:35;20.83;;;12.23;;
37543;SDS011;23385;52.038;20.322;2022-08-01T06:13:01;13.53;;;10.00;;
37543;SDS011;23385;52.038;20.322;2022-08-01T06:15:31;13.70;;;8.73;;
37543;SDS011;23385;52.038;20.322;2022-08-01T06:17:57;17.05;;;10.32;;
37543;SDS011;23385;52.038;20.322;2022-08-01T06:20:23;10.85;;;8.23;;
37543;SDS011;23385;52.038;20.322;2022-08-01T06:22:50;10.63;;;6.30;;
37543;SDS011;23385;52.038;20.322;2022-08-01T06:25:17;10.32;;;5.72;;
37543;SDS011;23385;52.038;20.322;2022-08-01T06:27:43;8.45;;;5.97;;
37543;SDS011;23385;52.038;20.322;2022-08-01T06:30:09;12.02;;;5.63;;
37543;SDS011;23385;52.038;20.322;2022-08-01T06:32:35;6.15;;;4.22;;
37543;SDS011;23385;52.038;20.322;2022-08-01T06:35:01;3.90;;;3.42;;
37543;SDS011;23385;52.038;20.322;2022-08-01T06:37:28;4.65;;;3.72;;
37543;SDS011;23385;52.038;20.322;2022-08-01T06:39:55;7.65;;;4.00;;
37543;SDS011;23385;52.038;20.322;2022-08-01T06:42:21;10.23;;;4.43;;
37543;SDS011;23385;52.038;20.322;2022-08-01T06:44:47;5.47;;;3.00;;
37543;SDS011;23385;52.038;20.322;2022-08-01T06:47:13;5.45;;;3.20;;
37543;SDS011;23385;52.038;20.322;2022-08-01T06:49:39;9.23;;;3.35;;
37543;SDS011;23385;52.038;20.322;2022-08-01T06:52:05;6.03;;;3.13;;
37543;SDS011;23385;52.038;20.322;2022-08-01T06:54:31;4.78;;;3.05;;
37543;SDS011;23385;52.038;20.322;2022-08-01T06:56:57;7.13;;;3.58;;
37543;SDS011;23385;52.038;20.322;2022-08-01T06:59:24;4.57;;;2.70;;
37543;SDS011;23385;52.038;20.322;2022-08-01T07:01:50;4.10;;;2.30;;
37543;SDS011;23385;52.038;20.322;2022-08-01T07:04:15;7.65;;;2.83;;
37543;SDS011;23385;52.038;20.322;2022-08-01T07:06:41;8.38;;;2.97;;
37543;SDS011;23385;52.038;20.322;2022-08-01T07:09:07;5.43;;;2.35;;
37543;SDS011;23385;52.038;20.322;2022-08-01T07:11:35;2.65;;;1.90;;
37543;SDS011;23385;52.038;20.322;2022-08-01T07:14:00;8.20;;;2.40;;
37543;SDS011;23385;52.038;20.322;2022-08-01T07:16:26;4.75;;;2.28;;
37543;SDS011;23385;52.038;20.322;2022-08-01T07:18:52;5.50;;;2.35;;
37543;SDS011;23385;52.038;20.322;2022-08-01T07:21:18;3.97;;;2.40;;
37543;SDS011;23385;52.038;20.322;2022-08-01T07:23:43;4.13;;;2.40;;
37543;SDS011;23385;52.038;20.322;2022-08-01T07:26:10;7.03;;;3.03;;
37543;SDS011;23385;52.038;20.322;2022-08-01T07:28:35;6.15;;;2.30;;
37543;SDS011;23385;52.038;20.322;2022-08-01T07:31:01;7.38;;;2.53;;
37543;SDS011;23385;52.038;20.322;2022-08-01T07:33:27;4.65;;;2.67;;
37543;SDS011;23385;52.038;20.322;2022-08-01T07:35:53;7.40;;;2.30;;
37543;SDS011;23385;52.038;20.322;2022-08-01T07:38:19;6.00;;;2.50;;
37543;SDS011;23385;52.038;20.322;2022-08-01T07:40:45;4.18;;;2.72;;
37543;SDS011;23385;52.038;20.322;2022-08-01T07:43:11;4.85;;;2.10;;
37543;SDS011;23385;52.038;20.322;2022-08-01T07:45:37;5.70;;;2.20;;
37543;SDS011;23385;52.038;20.322;2022-08-01T07:48:06;8.85;;;2.13;;
37543;SDS011;23385;52.038;20.322;2022-08-01T07:50:33;5.18;;;2.40;;
37543;SDS011;23385;52.038;20.322;2022-08-01T07:52:59;3.15;;;2.22;;
37543;SDS011;23385;52.038;20.322;2022-08-01T07:55:25;5.88;;;2.50;;
37543;SDS011;23385;52.038;20.322;2022-08-01T07:57:51;3.80;;;2.08;;
37543;SDS011;23385;52.038;20.322;2022-08-01T08:00:17;6.47;;;1.98;;
37543;SDS011;23385;52.038;20.322;2022-08-01T08:02:43;3.92;;;2.13;;
37543;SDS011;23385;52.038;20.322;2022-08-01T08:05:10;4.03;;;1.92;;
37543;SDS011;23385;52.038;20.322;2022-08-01T08:07:36;4.65;;;2.03;;
37543;SDS011;23385;52.038;20.322;2022-08-01T08:10:03;8.55;;;1.90;;
37543;SDS011;23385;52.038;20.322;2022-08-01T08:12:29;4.55;;;2.00;;
37543;SDS011;23385;52.038;20.322;2022-08-01T08:14:55;4.13;;;1.98;;
37543;SDS011;23385;52.038;20.322;2022-08-01T08:17:24;7.65;;;1.95;;
37543;SDS011;23385;52.038;20.322;2022-08-01T08:19:50;2.95;;;1.80;;
37543;SDS011;23385;52.038;20.322;2022-08-01T08:22:16;6.60;;;1.92;;
37543;SDS011;23385;52.038;20.322;2022-08-01T08:24:43;5.93;;;2.30;;
37543;SDS011;23385;52.038;20.322;2022-08-01T08:27:09;3.42;;;1.90;;
37543;SDS011;23385;52.038;20.322;2022-08-01T08:29:35;7.88;;;2.30;;
37543;SDS011;23385;52.038;20.322;2022-08-01T08:32:01;2.58;;;1.50;;
37543;SDS011;23385;52.038;20.322;2022-08-01T08:34:28;5.20;;;2.33;;
37543;SDS011;23385;52.038;20.322;2022-08-01T08:36:54;5.47;;;2.10;;
37543;SDS011;23385;52.038;20.322;2022-08-01T08:39:23;12.60;;;2.45;;
37543;SDS011;23385;52.038;20.322;2022-08-01T08:41:50;4.15;;;1.77;;
37543;SDS011;23385;52.038;20.322;2022-08-01T08:44:16;3.33;;;2.05;;
37543;SDS011;23385;52.038;20.322;2022-08-01T08:46:44;4.55;;;2.30;;
37543;SDS011;23385;52.038;20.322;2022-08-01T08:49:12;3.88;;;1.75;;
37543;SDS011;23385;52.038;20.322;2022-08-01T08:51:41;4.13;;;1.83;;
37543;SDS011;23385;52.038;20.322;2022-08-01T08:54:10;3.33;;;2.10;;
37543;SDS011;23385;52.038;20.322;2022-08-01T08:56:38;3.35;;;1.80;;
37543;SDS011;23385;52.038;20.322;2022-08-01T08:59:05;3.53;;;2.22;;
37543;SDS011;23385;52.038;20.322;2022-08-01T09:01:32;8.25;;;3.95;;
37543;SDS011;23385;52.038;20.322;2022-08-01T09:04:00;2.97;;;2.13;;
37543;SDS011;23385;52.038;20.322;2022-08-01T09:06:27;5.63;;;2.08;;
37543;SDS011;23385;52.038;20.322;2022-08-01T09:08:55;2.50;;;1.70;;
37543;SDS011;23385;52.038;20.322;2022-08-01T09:11:23;3.15;;;1.60;;
37543;SDS011;23385;52.038;20.322;2022-08-01T09:16:34;3.10;;;1.80;;
37543;SDS011;23385;52.038;20.322;2022-08-01T09:19:09;6.10;;;1.90;;
37543;SDS011;23385;52.038;20.322;2022-08-01T09:21:39;2.85;;;1.55;;
37543;SDS011;23385;52.038;20.322;2022-08-01T09:24:19;3.05;;;1.73;;
37543;SDS011;23385;52.038;20.322;2022-08-01T09:26:45;2.15;;;1.40;;
37543;SDS011;23385;52.038;20.322;2022-08-01T09:29:20;3.13;;;1.83;;
37543;SDS011;23385;52.038;20.322;2022-08-01T09:31:47;1.75;;;1.60;;
37543;SDS011;23385;52.038;20.322;2022-08-01T09:34:15;3.05;;;1.60;;
37543;SDS011;23385;52.038;20.322;2022-08-01T09:36:48;3.75;;;1.67;;
37543;SDS011;23385;52.038;20.322;2022-08-01T09:39:21;2.10;;;1.38;;
37543;SDS011;23385;52.038;20.322;2022-08-01T09:41:52;3.38;;;2.17;;
37543;SDS011;23385;52.038;20.322;2022-08-01T09:44:38;3.65;;;1.40;;
37543;SDS011;23385;52.038;20.322;2022-08-01T09:47:08;3.88;;;2.33;;
37543;SDS011;23385;52.038;20.322;2022-08-01T09:49:35;5.10;;;1.95;;
37543;SDS011;23385;52.038;20.322;2022-08-01T09:52:19;4.10;;;1.80;;
37543;SDS011;23385;52.038;20.322;2022-08-01T09:54:54;2.45;;;1.90;;
37543;SDS011;23385;52.038;20.322;2022-08-01T09:57:28;2.17;;;1.30;;
37543;SDS011;23385;52.038;20.322;2022-08-01T09:59:55;2.72;;;1.17;;
37543;SDS011;23385;52.038;20.322;2022-08-01T10:02:36;3.85;;;1.58;;
37543;SDS011;23385;52.038;20.322;2022-08-01T10:05:07;2.63;;;1.45;;
37543;SDS011;23385;52.038;20.322;2022-08-01T10:08:09;2.70;;;1.38;;
37543;SDS011;23385;52.038;20.322;2022-08-01T10:10:35;4.57;;;1.77;;
37543;SDS011;23385;52.038;20.322;2022-08-01T10:22:26;5.88;;;1.90;;
37543;SDS011;23385;52.038;20.322;2022-08-01T10:31:54;3.78;;;1.40;;
37543;SDS011;23385;52.038;20.322;2022-08-01T10:34:20;4.82;;;1.60;;
37543;SDS011;23385;52.038;20.322;2022-08-01T10:36:47;4.45;;;1.63;;
37543;SDS011;23385;52.038;20.322;2022-08-01T10:39:13;2.47;;;1.40;;
37543;SDS011;23385;52.038;20.322;2022-08-01T10:41:40;2.53;;;1.88;;
37543;SDS011;23385;52.038;20.322;2022-08-01T10:44:06;6.40;;;2.53;;
37543;SDS011;23385;52.038;20.322;2022-08-01T10:46:42;4.05;;;1.70;;
37543;SDS011;23385;52.038;20.322;2022-08-01T10:49:15;2.63;;;1.77;;
37543;SDS011;23385;52.038;20.322;2022-08-01T10:51:43;6.30;;;1.55;;
37543;SDS011;23385;52.038;20.322;2022-08-01T10:54:10;1.90;;;1.30;;
37543;SDS011;23385;52.038;20.322;2022-08-01T10:56:44;2.40;;;1.50;;
37543;SDS011;23385;52.038;20.322;2022-08-01T10:59:15;6.38;;;1.55;;
37543;SDS011;23385;52.038;20.322;2022-08-01T11:02:11;2.28;;;1.70;;
37543;SDS011;23385;52.038;20.322;2022-08-01T11:12:38;2.80;;;1.52;;
37543;SDS011;23385;52.038;20.322;2022-08-01T11:22:30;4.20;;;1.55;;
37543;SDS011;23385;52.038;20.322;2022-08-01T11:24:56;3.83;;;1.50;;
37543;SDS011;23385;52.038;20.322;2022-08-01T11:27:30;2.85;;;1.88;;
37543;SDS011;23385;52.038;20.322;2022-08-01T11:32:47;4.15;;;1.75;;
37543;SDS011;23385;52.038;20.322;2022-08-01T11:35:20;2.50;;;1.60;;
37543;SDS011;23385;52.038;20.322;2022-08-01T11:37:52;4.38;;;1.60;;
37543;SDS011;23385;52.038;20.322;2022-08-01T11:48:16;7.07;;;1.83;;
37543;SDS011;23385;52.038;20.322;2022-08-01T11:50:53;2.53;;;1.65;;
37543;SDS011;23385;52.038;20.322;2022-08-01T11:53:20;2.88;;;1.40;;
37543;SDS011;23385;52.038;20.322;2022-08-01T11:55:47;2.92;;;1.20;;
37543;SDS011;23385;52.038;20.322;2022-08-01T12:04:02;4.28;;;1.60;;
37543;SDS011;23385;52.038;20.322;2022-08-01T12:06:28;2.22;;;1.38;;
37543;SDS011;23385;52.038;20.322;2022-08-01T12:08:54;2.50;;;1.65;;
37543;SDS011;23385;52.038;20.322;2022-08-01T12:11:20;2.35;;;1.50;;
37543;SDS011;23385;52.038;20.322;2022-08-01T12:13:45;4.70;;;1.52;;
37543;SDS011;23385;52.038;20.322;2022-08-01T12:16:14;3.72;;;1.40;;
37543;SDS011;23385;52.038;20.322;2022-08-01T12:18:41;8.57;;;1.58;;
37543;SDS011;23385;52.038;20.322;2022-08-01T12:21:07;6.95;;;1.55;;
37543;SDS011;23385;52.038;20.322;2022-08-01T12:23:34;2.67;;;1.48;;
37543;SDS011;23385;52.038;20.322;2022-08-01T12:25:59;3.10;;;1.50;;
37543;SDS011;23385;52.038;20.322;2022-08-01T12:28:26;1.70;;;1.50;;
37543;SDS011;23385;52.038;20.322;2022-08-01T12:30:52;4.85;;;1.73;;
37543;SDS011;23385;52.038;20.322;2022-08-01T12:33:19;2.25;;;1.58;;
37543;SDS011;23385;52.038;20.322;2022-08-01T12:35:46;5.25;;;1.40;;
37543;SDS011;23385;52.038;20.322;2022-08-01T12:38:16;5.13;;;2.03;;
37543;SDS011;23385;52.038;20.322;2022-08-01T12:40:45;4.15;;;1.90;;
37543;SDS011;23385;52.038;20.322;2022-08-01T12:43:19;3.70;;;1.40;;
37543;SDS011;23385;52.038;20.322;2022-08-01T12:45:47;3.50;;;1.50;;
37543;SDS011;23385;52.038;20.322;2022-08-01T12:48:15;5.95;;;1.77;;
37543;SDS011;23385;52.038;20.322;2022-08-01T12:50:43;6.63;;;1.75;;
37543;SDS011;23385;52.038;20.322;2022-08-01T12:53:13;3.20;;;1.70;;
37543;SDS011;23385;52.038;20.322;2022-08-01T12:55:46;4.00;;;1.90;;
37543;SDS011;23385;52.038;20.322;2022-08-01T12:58:16;3.75;;;1.67;;
37543;SDS011;23385;52.038;20.322;2022-08-01T13:00:44;3.63;;;1.90;;
37543;SDS011;23385;52.038;20.322;2022-08-01T13:03:13;6.50;;;1.60;;
37543;SDS011;23385;52.038;20.322;2022-08-01T13:05:40;1.73;;;1.50;;
37543;SDS011;23385;52.038;20.322;2022-08-01T13:08:10;2.80;;;1.88;;
37543;SDS011;23385;52.038;20.322;2022-08-01T13:10:40;2.60;;;1.70;;
37543;SDS011;23385;52.038;20.322;2022-08-01T13:13:07;6.40;;;1.95;;
37543;SDS011;23385;52.038;20.322;2022-08-01T13:15:34;4.65;;;1.58;;
37543;SDS011;23385;52.038;20.322;2022-08-01T13:23:40;5.50;;;2.00;;
37543;SDS011;23385;52.038;20.322;2022-08-01T13:29:08;3.53;;;1.60;;
37543;SDS011;23385;52.038;20.322;2022-08-01T13:31:35;2.08;;;1.70;;
37543;SDS011;23385;52.038;20.322;2022-08-01T13:34:03;1.55;;;1.38;;
37543;SDS011;23385;52.038;20.322;2022-08-01T13:36:29;3.50;;;1.63;;
37543;SDS011;23385;52.038;20.322;2022-08-01T13:38:56;6.03;;;1.90;;
37543;SDS011;23385;52.038;20.322;2022-08-01T13:41:42;7.90;;;1.95;;
37543;SDS011;23385;52.038;20.322;2022-08-01T13:44:08;3.42;;;2.05;;
37543;SDS011;23385;52.038;20.322;2022-08-01T13:46:36;3.80;;;1.80;;
37543;SDS011;23385;52.038;20.322;2022-08-01T13:49:03;7.70;;;2.20;;
37543;SDS011;23385;52.038;20.322;2022-08-01T13:51:30;3.35;;;1.70;;
37543;SDS011;23385;52.038;20.322;2022-08-01T13:53:56;4.00;;;2.22;;
37543;SDS011;23385;52.038;20.322;2022-08-01T13:56:26;2.47;;;1.63;;
37543;SDS011;23385;52.038;20.322;2022-08-01T13:58:54;5.53;;;1.60;;
37543;SDS011;23385;52.038;20.322;2022-08-01T14:01:21;3.47;;;1.90;;
37543;SDS011;23385;52.038;20.322;2022-08-01T14:03:51;2.78;;;1.60;;
37543;SDS011;23385;52.038;20.322;2022-08-01T14:06:44;8.70;;;1.85;;
37543;SDS011;23385;52.038;20.322;2022-08-01T14:09:17;5.97;;;2.00;;
37543;SDS011;23385;52.038;20.322;2022-08-01T14:11:47;4.95;;;2.10;;
37543;SDS011;23385;52.038;20.322;2022-08-01T14:14:13;2.55;;;1.50;;
37543;SDS011;23385;52.038;20.322;2022-08-01T14:16:41;2.97;;;1.80;;
37543;SDS011;23385;52.038;20.322;2022-08-01T14:19:09;2.30;;;1.90;;
37543;SDS011;23385;52.038;20.322;2022-08-01T14:21:36;4.38;;;2.13;;
37543;SDS011;23385;52.038;20.322;2022-08-01T14:24:02;2.20;;;1.73;;
37543;SDS011;23385;52.038;20.322;2022-08-01T14:26:29;3.65;;;1.60;;
37543;SDS011;23385;52.038;20.322;2022-08-01T14:29:07;2.42;;;1.73;;
37543;SDS011;23385;52.038;20.322;2022-08-01T14:31:40;1.85;;;1.48;;
37543;SDS011;23385;52.038;20.322;2022-08-01T14:34:05;3.03;;;1.63;;
37543;SDS011;23385;52.038;20.322;2022-08-01T14:36:33;3.53;;;1.52;;
37543;SDS011;23385;52.038;20.322;2022-08-01T14:38:59;2.45;;;1.70;;
37543;SDS011;23385;52.038;20.322;2022-08-01T14:41:25;1.95;;;1.60;;
37543;SDS011;23385;52.038;20.322;2022-08-01T14:43:50;3.08;;;1.98;;
37543;SDS011;23385;52.038;20.322;2022-08-01T14:46:16;5.13;;;1.80;;
37543;SDS011;23385;52.038;20.322;2022-08-01T14:48:46;2.72;;;2.00;;
37543;SDS011;23385;52.038;20.322;2022-08-01T14:51:17;3.65;;;1.70;;
37543;SDS011;23385;52.038;20.322;2022-08-01T14:53:44;3.92;;;1.50;;
37543;SDS011;23385;52.038;20.322;2022-08-01T14:56:10;3.10;;;1.50;;
37543;SDS011;23385;52.038;20.322;2022-08-01T14:58:36;4.47;;;1.50;;
37543;SDS011;23385;52.038;20.322;2022-08-01T15:01:01;3.30;;;2.03;;
37543;SDS011;23385;52.038;20.322;2022-08-01T15:03:29;5.05;;;2.00;;
37543;SDS011;23385;52.038;20.322;2022-08-01T15:05:56;8.23;;;2.08;;
37543;SDS011;23385;52.038;20.322;2022-08-01T15:08:23;6.68;;;1.90;;
37543;SDS011;23385;52.038;20.322;2022-08-01T15:10:51;8.90;;;2.05;;
37543;SDS011;23385;52.038;20.322;2022-08-01T15:13:24;3.38;;;1.90;;
37543;SDS011;23385;52.038;20.322;2022-08-01T15:15:58;2.90;;;1.80;;
37543;SDS011;23385;52.038;20.322;2022-08-01T15:18:31;4.28;;;1.75;;
37543;SDS011;23385;52.038;20.322;2022-08-01T15:21:01;3.65;;;1.65;;
37543;SDS011;23385;52.038;20.322;2022-08-01T15:23:28;4.45;;;1.70;;
37543;SDS011;23385;52.038;20.322;2022-08-01T15:25:56;5.32;;;2.13;;
37543;SDS011;23385;52.038;20.322;2022-08-01T15:28:23;3.88;;;2.15;;
37543;SDS011;23385;52.038;20.322;2022-08-01T15:30:50;7.10;;;2.47;;
37543;SDS011;23385;52.038;20.322;2022-08-01T15:33:15;3.30;;;2.10;;
37543;SDS011;23385;52.038;20.322;2022-08-01T15:35:42;8.38;;;2.33;;
37543;SDS011;23385;52.038;20.322;2022-08-01T15:38:08;5.88;;;2.15;;
37543;SDS011;23385;52.038;20.322;2022-08-01T15:40:33;3.45;;;2.00;;
37543;SDS011;23385;52.038;20.322;2022-08-01T16:12:42;6.70;;;2.38;;
37543;SDS011;23385;52.038;20.322;2022-08-01T16:15:09;4.13;;;2.40;;
37543;SDS011;23385;52.038;20.322;2022-08-01T16:17:35;3.95;;;2.10;;
37543;SDS011;23385;52.038;20.322;2022-08-01T16:20:01;4.32;;;2.22;;
37543;SDS011;23385;52.038;20.322;2022-08-01T16:22:52;5.15;;;2.50;;
37543;SDS011;23385;52.038;20.322;2022-08-01T16:26:00;3.35;;;2.03;;